createdAt,value
2023-03-26T00:00:09.297Z,34.64
2023-03-26T00:01:17.399Z,34.64
2023-03-26T00:02:19.376Z,34.47
2023-03-26T00:03:22.348Z,34.47
2023-03-26T00:04:25.382Z,34.36
2023-03-26T00:05:27.231Z,34.39
2023-03-26T00:06:38.816Z,34.35
2023-03-26T00:07:41.304Z,34.44
2023-03-26T00:08:45.686Z,34.55
2023-03-26T00:09:47.549Z,34.59
2023-03-26T00:10:49.387Z,34.65
2023-03-26T00:11:51.269Z,34.71
2023-03-26T00:12:53.215Z,34.33
2023-03-26T00:13:59.747Z,34.63
2023-03-26T00:15:01.643Z,34.43
2023-03-26T00:16:04.823Z,34.38
2023-03-26T00:17:08.336Z,34.31
2023-03-26T00:18:10.156Z,34.46
2023-03-26T00:19:12.780Z,34.32
2023-03-26T00:20:14.686Z,34.60
2023-03-26T00:21:21.250Z,34.46
2023-03-26T00:22:23.546Z,34.29
2023-03-26T00:23:27.061Z,34.31
2023-03-26T00:24:29.781Z,34.23
2023-03-26T00:25:32.001Z,34.56
2023-03-26T00:26:37.606Z,34.48
2023-03-26T00:27:39.654Z,34.34
2023-03-26T00:28:42.725Z,34.64
2023-03-26T00:29:44.774Z,34.17
2023-03-26T00:30:47.027Z,34.51
2023-03-26T00:31:49.001Z,34.23
2023-03-26T00:32:53.733Z,34.34
2023-03-26T00:33:56.316Z,34.24
2023-03-26T00:34:58.370Z,34.26
2023-03-26T00:36:03.883Z,34.38
2023-03-26T00:37:06.282Z,34.36
2023-03-26T00:38:08.846Z,34.06
2023-03-26T00:39:10.712Z,34.52
2023-03-26T00:40:13.038Z,34.54
2023-03-26T00:41:22.637Z,34.63
2023-03-26T00:42:25.010Z,34.44
2023-03-26T00:43:26.833Z,34.21
2023-03-26T00:44:28.744Z,34.48
2023-03-26T00:45:30.845Z,34.43
2023-03-26T00:46:32.806Z,34.56
2023-03-26T00:47:36.006Z,34.34
2023-03-26T00:48:45.108Z,34.62
2023-03-26T00:49:48.817Z,34.50
2023-03-26T00:50:51.096Z,34.48
2023-03-26T00:51:53.264Z,34.36
2023-03-26T00:52:55.863Z,34.51
2023-03-26T00:53:58.424Z,34.22
2023-03-26T00:55:00.274Z,34.45
2023-03-26T00:56:02.076Z,34.52
2023-03-26T00:57:06.803Z,34.53
2023-03-26T00:58:12.163Z,34.62
2023-03-26T00:59:13.978Z,34.43
2023-03-26T01:00:18.920Z,34.40
2023-03-26T01:01:28.640Z,34.29
2023-03-26T01:02:33.006Z,34.23
2023-03-26T01:03:38.505Z,34.23
2023-03-26T01:04:44.922Z,34.61
2023-03-26T01:06:19.711Z,34.08
2023-03-26T01:07:28.825Z,34.54
2023-03-26T01:08:39.906Z,34.29
2023-03-26T01:09:50.205Z,34.55
2023-03-26T01:11:02.868Z,34.34
2023-03-26T01:12:08.828Z,34.52
2023-03-26T01:13:10.948Z,34.45
2023-03-26T01:14:19.298Z,34.22
2023-03-26T01:15:22.223Z,34.18
2023-03-26T01:16:42.039Z,34.36
2023-03-26T01:17:43.922Z,34.19
2023-03-26T01:18:47.019Z,34.50
2023-03-26T01:20:12.678Z,34.17
2023-03-26T01:21:23.793Z,34.40
2023-03-26T01:22:27.247Z,34.36
2023-03-26T01:23:41.599Z,34.18
2023-03-26T01:24:46.081Z,34.13
2023-03-26T01:26:02.509Z,34.42
2023-03-26T01:27:21.141Z,34.07
2023-03-26T01:28:30.752Z,34.29
2023-03-26T01:29:52.674Z,34.40
2023-03-26T01:31:31.381Z,34.04
2023-03-26T01:32:57.821Z,34.13
2023-03-26T01:34:21.377Z,34.13
2023-03-26T01:35:49.685Z,34.11
2023-03-26T01:37:13.136Z,34.29
2023-03-26T01:38:38.620Z,34.35
2023-03-26T01:40:10.043Z,33.90
2023-03-26T01:41:37.400Z,34.35
2023-03-26T01:43:12.727Z,34.48
2023-03-26T01:44:48.144Z,34.32
2023-03-26T01:45:52.365Z,34.26
2023-03-26T01:46:55.604Z,34.61
2023-03-26T01:47:58.123Z,34.40
2023-03-26T01:49:00.044Z,34.41
2023-03-26T01:50:01.986Z,34.39
2023-03-26T01:51:06.398Z,34.28
2023-03-26T01:52:19.511Z,34.51
2023-03-26T01:53:21.726Z,34.38
2023-03-26T01:54:28.326Z,34.49
2023-03-26T01:56:02.327Z,34.43
2023-03-26T01:57:27.558Z,34.14
2023-03-26T01:59:03.839Z,34.20
2023-03-26T02:00:12.135Z,34.35
2023-03-26T02:01:36.630Z,34.33
2023-03-26T02:02:50.704Z,34.20
2023-03-26T02:04:08.389Z,34.49
2023-03-26T02:05:32.934Z,34.26
2023-03-26T02:06:46.729Z,34.33
2023-03-26T02:08:09.552Z,34.32
2023-03-26T02:09:20.699Z,34.11
2023-03-26T02:10:27.833Z,34.44
2023-03-26T02:11:35.361Z,34.16
2023-03-26T02:12:38.733Z,34.39
2023-03-26T02:13:44.468Z,34.42
2023-03-26T02:14:46.625Z,34.25
2023-03-26T02:16:03.311Z,34.56
2023-03-26T02:17:06.046Z,34.73
2023-03-26T02:18:10.847Z,34.67
2023-03-26T02:19:21.844Z,34.62
2023-03-26T02:20:23.877Z,34.53
2023-03-26T02:21:28.420Z,34.55
2023-03-26T02:22:32.150Z,34.27
2023-03-26T02:23:35.853Z,34.38
2023-03-26T02:24:38.828Z,34.52
2023-03-26T02:25:42.696Z,34.51
2023-03-26T02:26:45.723Z,34.62
2023-03-26T02:27:49.752Z,34.57
2023-03-26T02:28:51.628Z,34.21
2023-03-26T02:29:53.487Z,34.43
2023-03-26T02:30:57.612Z,34.26
2023-03-26T02:31:59.522Z,34.26
2023-03-26T02:33:01.616Z,34.64
2023-03-26T02:34:03.618Z,34.63
2023-03-26T02:35:06.860Z,34.26
2023-03-26T02:36:10.757Z,34.34
2023-03-26T02:37:12.749Z,34.33
2023-03-26T02:38:14.628Z,34.53
2023-03-26T02:39:16.867Z,34.55
2023-03-26T02:40:21.253Z,34.35
2023-03-26T02:41:23.354Z,34.19
2023-03-26T02:42:25.463Z,34.05
2023-03-26T02:43:27.793Z,34.22
2023-03-26T02:44:29.716Z,34.55
2023-03-26T02:45:31.620Z,34.38
2023-03-26T02:46:34.114Z,34.16
2023-03-26T02:47:35.984Z,34.24
2023-03-26T02:48:38.018Z,34.41
2023-03-26T02:49:39.910Z,34.23
2023-03-26T02:50:42.175Z,34.03
2023-03-26T02:51:44.393Z,34.42
2023-03-26T02:52:49.012Z,34.13
2023-03-26T02:53:53.565Z,34.25
2023-03-26T02:54:56.157Z,33.94
2023-03-26T02:56:00.342Z,33.85
2023-03-26T02:57:02.291Z,33.79
2023-03-26T02:58:04.158Z,34.26
2023-03-26T02:59:06.052Z,34.04
2023-03-26T03:00:09.232Z,34.22
2023-03-26T03:01:11.093Z,33.96
2023-03-26T03:02:13.527Z,33.99
2023-03-26T03:03:17.221Z,33.80
2023-03-26T03:04:19.584Z,34.12
2023-03-26T03:05:26.282Z,34.05
2023-03-26T03:06:30.958Z,33.94
2023-03-26T03:07:32.768Z,33.76
2023-03-26T03:08:34.673Z,34.19
2023-03-26T03:09:36.541Z,33.97
2023-03-26T03:10:39.471Z,34.16
2023-03-26T03:11:41.686Z,33.80
2023-03-26T03:12:43.500Z,34.14
2023-03-26T03:13:46.199Z,34.10
2023-03-26T03:14:48.146Z,33.86
2023-03-26T03:15:50.024Z,33.94
2023-03-26T03:16:51.924Z,33.96
2023-03-26T03:17:53.847Z,34.06
2023-03-26T03:18:58.984Z,34.19
2023-03-26T03:20:00.897Z,34.07
2023-03-26T03:21:04.420Z,34.09
2023-03-26T03:22:06.281Z,34.15
2023-03-26T03:23:08.221Z,33.90
2023-03-26T03:24:11.620Z,33.98
2023-03-26T03:25:14.379Z,34.07
2023-03-26T03:26:27.643Z,33.96
2023-03-26T03:27:29.798Z,33.88
2023-03-26T03:28:31.569Z,33.96
2023-03-26T03:29:33.381Z,34.10
2023-03-26T03:30:36.119Z,34.10
2023-03-26T03:31:37.963Z,33.90
2023-03-26T03:32:39.747Z,33.67
2023-03-26T03:33:42.952Z,34.03
2023-03-26T03:34:44.849Z,33.80
2023-03-26T03:35:49.538Z,34.01
2023-03-26T03:36:51.541Z,33.75
2023-03-26T03:37:53.970Z,33.89
2023-03-26T03:39:02.087Z,34.02
2023-03-26T03:40:08.183Z,33.65
2023-03-26T03:41:11.290Z,33.98
2023-03-26T03:42:13.050Z,33.58
2023-03-26T03:43:14.884Z,33.90
2023-03-26T03:44:16.898Z,33.71
2023-03-26T03:45:19.219Z,33.83
2023-03-26T03:46:21.081Z,33.95
2023-03-26T03:47:23.112Z,33.86
2023-03-26T03:48:25.751Z,33.94
2023-03-26T03:49:27.576Z,33.74
2023-03-26T03:50:29.375Z,33.84
2023-03-26T03:51:31.286Z,33.97
2023-03-26T03:52:33.752Z,33.97
2023-03-26T03:53:37.314Z,33.83
2023-03-26T03:54:39.266Z,33.85
2023-03-26T03:55:42.007Z,33.93
2023-03-26T03:56:45.558Z,33.79
2023-03-26T03:57:47.456Z,33.63
2023-03-26T03:58:49.545Z,33.65
2023-03-26T03:59:51.388Z,33.81
2023-03-26T04:01:00.743Z,33.92
2023-03-26T04:02:02.690Z,33.57
2023-03-26T04:03:06.434Z,33.81
2023-03-26T04:04:09.093Z,33.66
2023-03-26T04:05:11.924Z,33.56
2023-03-26T04:06:14.267Z,33.37
2023-03-26T04:07:16.559Z,33.74
2023-03-26T04:08:18.721Z,33.79
2023-03-26T04:09:20.845Z,33.72
2023-03-26T04:10:22.622Z,33.54
2023-03-26T04:11:24.485Z,33.56
2023-03-26T04:12:31.380Z,33.88
2023-03-26T04:13:33.217Z,33.52
2023-03-26T04:14:35.740Z,33.57
2023-03-26T04:15:37.690Z,33.90
2023-03-26T04:16:39.547Z,33.96
2023-03-26T04:17:42.816Z,33.60
2023-03-26T04:18:47.423Z,33.50
2023-03-26T04:19:50.409Z,33.75
2023-03-26T04:20:52.261Z,33.90
2023-03-26T04:21:54.490Z,33.61
2023-03-26T04:22:56.364Z,34.06
2023-03-26T04:23:58.246Z,33.82
2023-03-26T04:25:02.308Z,33.73
2023-03-26T04:26:07.515Z,33.97
2023-03-26T04:27:16.489Z,33.80
2023-03-26T04:28:26.412Z,33.75
2023-03-26T04:29:32.728Z,33.92
2023-03-26T04:30:35.422Z,33.93
2023-03-26T04:31:38.181Z,34.01
2023-03-26T04:32:40.465Z,34.03
2023-03-26T04:33:49.105Z,33.65
2023-03-26T04:34:51.108Z,34.02
2023-03-26T04:35:53.085Z,33.92
2023-03-26T04:36:55.123Z,33.69
2023-03-26T04:37:57.081Z,34.04
2023-03-26T04:39:04.643Z,33.71
2023-03-26T04:40:17.505Z,33.95
2023-03-26T04:41:20.016Z,33.92
2023-03-26T04:42:22.240Z,33.88
2023-03-26T04:43:24.088Z,34.13
2023-03-26T04:44:25.997Z,33.93
2023-03-26T04:45:30.279Z,34.23
2023-03-26T04:46:33.633Z,34.06
2023-03-26T04:47:37.046Z,34.19
2023-03-26T04:48:39.028Z,34.19
2023-03-26T04:49:41.299Z,34.10
2023-03-26T04:50:45.768Z,34.23
2023-03-26T04:51:47.978Z,34.50
2023-03-26T04:52:50.504Z,34.04
2023-03-26T04:53:59.600Z,34.20
2023-03-26T04:55:01.887Z,34.31
2023-03-26T04:56:23.759Z,34.22
2023-03-26T04:57:30.652Z,33.86
2023-03-26T04:58:33.076Z,34.13
2023-03-26T04:59:36.113Z,34.24
2023-03-26T05:00:38.009Z,34.03
2023-03-26T05:01:41.942Z,34.05
2023-03-26T05:02:43.915Z,34.09
2023-03-26T05:03:45.971Z,34.21
2023-03-26T05:04:49.876Z,34.18
2023-03-26T05:05:51.880Z,34.08
2023-03-26T05:06:54.102Z,34.21
2023-03-26T05:07:56.749Z,34.36
2023-03-26T05:08:58.608Z,34.24
2023-03-26T05:10:03.333Z,34.17
2023-03-26T05:11:11.353Z,34.33
2023-03-26T05:12:13.295Z,33.93
2023-03-26T05:13:15.439Z,34.16
2023-03-26T05:14:18.181Z,34.11
2023-03-26T05:15:20.280Z,34.31
2023-03-26T05:16:22.481Z,34.16
2023-03-26T05:17:26.137Z,33.88
2023-03-26T05:18:27.895Z,33.92
2023-03-26T05:19:29.700Z,33.81
2023-03-26T05:20:31.847Z,33.96
2023-03-26T05:21:33.625Z,33.88
2023-03-26T05:22:37.923Z,33.81
2023-03-26T05:23:40.275Z,33.65
2023-03-26T05:24:42.479Z,33.92
2023-03-26T05:25:44.316Z,33.64
2023-03-26T05:26:46.163Z,34.00
2023-03-26T05:27:48.805Z,33.84
2023-03-26T05:28:52.513Z,34.03
2023-03-26T05:30:01.866Z,33.78
2023-03-26T05:31:03.922Z,33.84
2023-03-26T05:32:07.163Z,33.78
2023-03-26T05:33:09.062Z,33.48
2023-03-26T05:34:11.323Z,33.67
2023-03-26T05:35:13.248Z,33.66
2023-03-26T05:36:17.191Z,33.55
2023-03-26T05:37:20.386Z,33.66
2023-03-26T05:38:22.247Z,33.23
2023-03-26T05:39:26.389Z,33.33
2023-03-26T05:40:28.548Z,33.42
2023-03-26T05:41:30.413Z,33.60
2023-03-26T05:42:32.202Z,33.43
2023-03-26T05:43:35.241Z,33.62
2023-03-26T05:44:37.082Z,33.54
2023-03-26T05:45:38.918Z,33.51
2023-03-26T05:46:40.842Z,33.38
2023-03-26T05:47:43.290Z,33.49
2023-03-26T05:48:45.737Z,33.52
2023-03-26T05:49:47.544Z,33.51
2023-03-26T05:50:51.584Z,33.58
2023-03-26T05:51:55.450Z,33.51
2023-03-26T05:52:57.390Z,33.29
2023-03-26T05:53:59.191Z,33.51
2023-03-26T05:55:01.068Z,33.51
2023-03-26T05:56:04.177Z,33.42
2023-03-26T05:57:06.224Z,33.61
2023-03-26T05:58:07.983Z,33.30
2023-03-26T05:59:09.831Z,33.53
2023-03-26T06:00:12.258Z,33.60
2023-03-26T06:01:18.909Z,33.79
2023-03-26T06:02:20.777Z,33.67
2023-03-26T06:03:23.146Z,33.63
2023-03-26T06:04:25.423Z,33.58
2023-03-26T06:05:32.535Z,33.66
2023-03-26T06:06:34.418Z,33.39
2023-03-26T06:07:36.411Z,33.33
2023-03-26T06:08:39.597Z,33.30
2023-03-26T06:09:41.472Z,33.42
2023-03-26T06:10:43.839Z,33.57
2023-03-26T06:11:45.748Z,33.29
2023-03-26T06:12:47.637Z,33.50
2023-03-26T06:13:49.494Z,33.39
2023-03-26T06:14:51.382Z,33.22
2023-03-26T06:15:53.433Z,33.62
2023-03-26T06:16:55.233Z,33.38
2023-03-26T06:17:57.024Z,33.38
2023-03-26T06:18:58.996Z,33.50
2023-03-26T06:20:00.987Z,33.49
2023-03-26T06:21:04.328Z,33.72
2023-03-26T06:22:06.501Z,33.38
2023-03-26T06:23:08.369Z,33.53
2023-03-26T06:24:10.234Z,33.80
2023-03-26T06:25:12.040Z,33.96
2023-03-26T06:26:13.903Z,33.91
2023-03-26T06:27:15.682Z,34.15
2023-03-26T06:28:17.818Z,34.14
2023-03-26T06:29:20.134Z,34.16
2023-03-26T06:30:22.014Z,34.43
2023-03-26T06:31:23.936Z,34.29
2023-03-26T06:32:25.894Z,34.03
2023-03-26T06:33:28.691Z,33.78
2023-03-26T06:34:30.798Z,33.99
2023-03-26T06:35:33.023Z,33.94
2023-03-26T06:36:34.909Z,33.83
2023-03-26T06:37:36.990Z,33.75
2023-03-26T06:38:38.857Z,33.56
2023-03-26T06:39:40.836Z,33.39
2023-03-26T06:40:42.674Z,33.35
2023-03-26T06:41:44.528Z,33.23
2023-03-26T06:43:07.615Z,33.10
2023-03-26T06:44:08.198Z,33.11
2023-03-26T06:45:10.531Z,33.26
2023-03-26T06:46:13.232Z,33.24
2023-03-26T06:47:15.268Z,33.17
2023-03-26T06:48:17.048Z,33.21
2023-03-26T06:49:18.891Z,33.17
2023-03-26T06:50:21.197Z,33.20
2023-03-26T06:51:23.119Z,33.13
2023-03-26T06:52:25.010Z,33.05
2023-03-26T06:53:26.899Z,33.21
2023-03-26T06:54:28.811Z,33.37
2023-03-26T06:55:31.323Z,33.21
2023-03-26T06:56:33.304Z,33.12
2023-03-26T06:57:35.296Z,33.12
2023-03-26T06:58:37.350Z,32.88
2023-03-26T06:59:39.206Z,32.83
2023-03-26T07:00:42.317Z,32.91
2023-03-26T07:01:45.849Z,33.17
2023-03-26T07:02:48.772Z,33.02
2023-03-26T07:03:50.805Z,33.12
2023-03-26T07:04:53.508Z,33.18
2023-03-26T07:05:55.414Z,33.32
2023-03-26T07:06:57.250Z,33.00
2023-03-26T07:07:59.075Z,33.26
2023-03-26T07:09:01.008Z,33.20
2023-03-26T07:10:02.997Z,33.11
2023-03-26T07:11:05.360Z,33.30
2023-03-26T07:12:07.578Z,32.96
2023-03-26T07:13:09.467Z,33.18
2023-03-26T07:14:11.256Z,33.37
2023-03-26T07:15:13.574Z,33.40
2023-03-26T07:16:15.481Z,33.19
2023-03-26T07:17:17.354Z,33.26
2023-03-26T07:18:19.196Z,33.22
2023-03-26T07:19:21.264Z,33.45
2023-03-26T07:20:23.908Z,33.53
2023-03-26T07:21:26.232Z,33.44
2023-03-26T07:22:28.563Z,33.54
2023-03-26T07:23:30.726Z,33.42
2023-03-26T07:24:32.886Z,33.51
2023-03-26T07:25:35.209Z,33.43
2023-03-26T07:26:55.218Z,33.24
2023-03-26T07:28:26.766Z,33.11
2023-03-26T07:29:56.788Z,33.27
2023-03-26T07:31:35.999Z,33.22
2023-03-26T07:33:30.461Z,33.27
2023-03-26T07:35:10.584Z,33.35
2023-03-26T07:36:36.053Z,33.31
2023-03-26T07:38:16.212Z,33.71
2023-03-26T07:39:51.262Z,33.69
2023-03-26T07:41:23.690Z,33.63
2023-03-26T07:42:37.341Z,33.71
2023-03-26T07:44:33.645Z,33.41
2023-03-26T07:45:41.911Z,33.57
2023-03-26T07:46:44.116Z,33.67
2023-03-26T07:47:49.445Z,33.46
2023-03-26T07:48:53.988Z,33.20
2023-03-26T07:49:59.969Z,33.68
2023-03-26T07:51:02.974Z,33.13
2023-03-26T07:52:05.263Z,33.11
2023-03-26T07:53:07.651Z,33.00
2023-03-26T07:54:11.242Z,33.07
2023-03-26T07:55:16.190Z,33.20
2023-03-26T07:57:04.442Z,33.08
2023-03-26T07:58:50.710Z,32.88
2023-03-26T08:00:12.149Z,32.96
2023-03-26T08:02:02.691Z,32.75
2023-03-26T08:03:45.442Z,32.93
2023-03-26T08:05:28.745Z,33.01
2023-03-26T08:06:38.198Z,32.92
2023-03-26T08:08:10.617Z,32.86
2023-03-26T08:09:45.733Z,32.83
2023-03-26T08:11:20.792Z,32.90
2023-03-26T08:13:07.089Z,32.91
2023-03-26T08:14:38.539Z,32.79
2023-03-26T08:15:59.045Z,32.95
2023-03-26T08:17:54.365Z,32.71
2023-03-26T08:19:43.092Z,32.96
2023-03-26T08:20:58.447Z,32.99
2023-03-26T08:22:31.143Z,32.91
2023-03-26T08:24:04.809Z,33.01
2023-03-26T08:25:34.823Z,33.14
2023-03-26T08:27:13.476Z,33.07
2023-03-26T08:28:30.159Z,32.98
2023-03-26T08:29:57.996Z,33.08
2023-03-26T08:31:02.816Z,32.86
2023-03-26T08:32:12.514Z,33.05
2023-03-26T08:33:22.944Z,33.18
2023-03-26T08:34:24.877Z,33.04
2023-03-26T08:35:28.375Z,32.99
2023-03-26T08:36:30.345Z,33.28
2023-03-26T08:37:32.242Z,33.16
2023-03-26T08:38:34.132Z,33.06
2023-03-26T08:39:38.802Z,33.40
2023-03-26T08:41:08.240Z,33.06
2023-03-26T08:42:18.933Z,33.23
2023-03-26T08:43:58.287Z,33.17
2023-03-26T08:45:54.724Z,33.12
2023-03-26T08:47:02.132Z,33.21
2023-03-26T08:48:41.287Z,33.48
2023-03-26T08:50:26.122Z,33.34
2023-03-26T08:51:51.482Z,33.32
2023-03-26T08:53:15.394Z,33.47
2023-03-26T08:54:52.206Z,33.45
2023-03-26T08:56:32.915Z,33.43
2023-03-26T08:58:13.502Z,33.56
2023-03-26T08:59:27.653Z,33.74
2023-03-26T09:00:40.858Z,33.86
2023-03-26T09:02:00.755Z,33.70
2023-03-26T09:03:23.258Z,33.62
2023-03-26T09:05:00.513Z,33.69
2023-03-26T09:06:47.740Z,33.67
2023-03-26T09:08:30.008Z,33.55
2023-03-26T09:10:22.595Z,33.52
2023-03-26T09:12:04.517Z,33.65
2023-03-26T09:13:18.113Z,33.54
2023-03-26T09:15:11.367Z,33.52
2023-03-26T09:16:38.284Z,33.61
2023-03-26T09:17:40.101Z,33.70
2023-03-26T09:18:57.544Z,33.79
2023-03-26T09:20:49.938Z,33.57
2023-03-26T09:22:40.999Z,33.58
2023-03-26T09:24:39.046Z,33.76
2023-03-26T09:26:18.416Z,33.71
2023-03-26T09:27:45.017Z,33.59
2023-03-26T09:29:07.965Z,33.45
2023-03-26T09:30:21.741Z,33.49
2023-03-26T09:32:04.759Z,33.34
2023-03-26T09:33:42.741Z,33.52
2023-03-26T09:35:19.750Z,33.58
2023-03-26T09:37:02.569Z,33.69
2023-03-26T09:39:05.005Z,33.53
2023-03-26T09:40:29.491Z,33.39
2023-03-26T09:41:43.725Z,33.46
2023-03-26T09:43:28.045Z,33.64
2023-03-26T09:44:56.852Z,33.35
2023-03-26T09:46:29.677Z,33.25
2023-03-26T09:48:16.124Z,33.43
2023-03-26T09:49:49.736Z,33.58
2023-03-26T09:51:29.845Z,33.41
2023-03-26T09:53:02.033Z,33.49
2023-03-26T09:54:46.372Z,33.19
2023-03-26T09:55:57.183Z,33.59
2023-03-26T09:57:04.838Z,33.56
2023-03-26T09:58:33.099Z,33.58
2023-03-26T10:00:03.136Z,33.45
2023-03-26T10:01:20.382Z,33.53
2023-03-26T10:02:50.270Z,33.45
2023-03-26T10:04:24.435Z,33.48
2023-03-26T10:05:42.868Z,33.30
2023-03-26T10:07:13.164Z,33.54
2023-03-26T10:08:39.272Z,33.49
2023-03-26T10:10:26.361Z,33.43
2023-03-26T10:12:02.990Z,33.33
2023-03-26T10:13:19.737Z,33.59
2023-03-26T10:14:54.080Z,33.30
2023-03-26T10:16:08.174Z,33.72
2023-03-26T10:17:25.670Z,33.41
2023-03-26T10:18:46.187Z,33.55
2023-03-26T10:19:59.784Z,33.62
2023-03-26T10:21:11.204Z,33.49
2023-03-26T10:22:48.825Z,33.33
2023-03-26T10:24:24.451Z,33.56
2023-03-26T10:25:56.343Z,33.35
2023-03-26T10:27:18.574Z,33.88
2023-03-26T10:28:50.506Z,33.60
2023-03-26T10:30:16.487Z,33.74
2023-03-26T10:31:51.492Z,33.64
2023-03-26T10:33:25.109Z,33.36
2023-03-26T10:34:52.754Z,33.48
2023-03-26T10:36:12.648Z,33.64
2023-03-26T10:37:38.610Z,33.62
2023-03-26T10:39:38.239Z,33.52
2023-03-26T10:40:53.983Z,33.70
2023-03-26T10:42:28.821Z,33.63
2023-03-26T10:43:49.786Z,33.54
2023-03-26T10:45:33.500Z,33.37
2023-03-26T10:47:11.234Z,33.37
2023-03-26T10:48:31.036Z,33.53
2023-03-26T10:50:08.058Z,33.58
2023-03-26T10:51:33.421Z,33.38
2023-03-26T10:52:41.397Z,33.70
2023-03-26T10:53:54.397Z,33.56
2023-03-26T10:55:18.983Z,33.36
2023-03-26T10:56:27.371Z,33.37
2023-03-26T10:58:10.414Z,33.13
2023-03-26T10:59:15.667Z,33.35
2023-03-26T11:00:27.461Z,33.50
2023-03-26T11:02:00.169Z,33.25
2023-03-26T11:03:41.734Z,33.28
2023-03-26T11:05:18.377Z,33.29
2023-03-26T11:06:50.550Z,33.37
2023-03-26T11:08:14.205Z,33.37
2023-03-26T11:09:46.409Z,33.28
2023-03-26T11:11:08.719Z,33.31
2023-03-26T11:12:40.272Z,33.21
2023-03-26T11:14:09.650Z,33.07
2023-03-26T11:15:29.222Z,33.05
2023-03-26T11:17:09.487Z,33.34
2023-03-26T11:18:44.044Z,33.27
2023-03-26T11:20:02.648Z,33.11
2023-03-26T11:21:19.854Z,33.24
2023-03-26T11:22:40.083Z,33.28
2023-03-26T11:24:11.382Z,33.05
2023-03-26T11:25:29.877Z,33.14
2023-03-26T11:26:56.274Z,33.08
2023-03-26T11:28:41.133Z,33.04
2023-03-26T11:30:36.217Z,32.93
2023-03-26T11:31:53.028Z,32.97
2023-03-26T11:33:02.215Z,32.91
2023-03-26T11:34:16.507Z,32.85
2023-03-26T11:35:44.035Z,33.06
2023-03-26T11:36:53.551Z,32.92
2023-03-26T11:38:02.398Z,33.24
2023-03-26T11:39:18.588Z,32.84
2023-03-26T11:40:41.505Z,33.01
2023-03-26T11:41:44.474Z,32.91
2023-03-26T11:42:51.511Z,32.78
2023-03-26T11:44:26.947Z,32.74
2023-03-26T11:45:37.298Z,33.04
2023-03-26T11:46:44.135Z,32.95
2023-03-26T11:48:16.702Z,32.86
2023-03-26T11:49:22.790Z,32.89
2023-03-26T11:50:32.614Z,32.94
2023-03-26T11:51:36.739Z,33.14
2023-03-26T11:52:38.535Z,32.92
2023-03-26T11:53:40.593Z,32.66
2023-03-26T11:54:43.425Z,32.67
2023-03-26T11:56:04.086Z,32.56
2023-03-26T11:57:13.337Z,32.78
2023-03-26T11:58:40.459Z,32.74
2023-03-26T12:00:17.909Z,32.60
2023-03-26T12:01:30.857Z,33.01
2023-03-26T12:02:40.965Z,33.21
2023-03-26T12:03:43.038Z,33.36
2023-03-26T12:05:02.789Z,33.34
2023-03-26T12:06:04.848Z,33.08
2023-03-26T12:07:17.505Z,33.05
2023-03-26T12:08:33.133Z,33.22
2023-03-26T12:09:35.268Z,32.95
2023-03-26T12:10:42.849Z,33.04
2023-03-26T12:11:45.410Z,33.01
2023-03-26T12:12:48.543Z,33.05
2023-03-26T12:14:00.383Z,32.88
2023-03-26T12:15:02.854Z,32.90
2023-03-26T12:16:17.246Z,33.08
2023-03-26T12:17:42.273Z,32.66
2023-03-26T12:18:57.440Z,32.78
2023-03-26T12:20:00.796Z,32.95
2023-03-26T12:21:18.327Z,32.82
2023-03-26T12:22:37.213Z,32.85
2023-03-26T12:24:00.309Z,32.85
2023-03-26T12:25:18.038Z,32.94
2023-03-26T12:26:50.756Z,32.97
2023-03-26T12:28:18.380Z,32.88
2023-03-26T12:29:20.715Z,32.85
2023-03-26T12:30:37.477Z,32.82
2023-03-26T12:32:05.985Z,32.83
2023-03-26T12:33:26.126Z,32.92
2023-03-26T12:34:35.865Z,32.56
2023-03-26T12:35:37.965Z,32.90
2023-03-26T12:36:40.077Z,32.85
2023-03-26T12:37:44.491Z,32.84
2023-03-26T12:38:46.497Z,32.76
2023-03-26T12:40:35.888Z,32.76
2023-03-26T12:44:42.404Z,32.71
2023-03-26T12:44:53.233Z,32.77
2023-03-26T12:44:59.604Z,32.77
2023-03-26T12:47:54.237Z,32.59
2023-03-26T12:48:02.366Z,32.61
2023-03-26T12:49:03.948Z,32.78
2023-03-26T12:50:07.467Z,32.69
2023-03-26T12:51:43.725Z,32.56
2023-03-26T12:52:48.462Z,32.62
2023-03-26T12:54:23.542Z,32.72
2023-03-26T12:56:17.573Z,32.52
2023-03-26T12:57:38.705Z,32.44
2023-03-26T12:59:00.213Z,32.55
2023-03-26T13:00:50.675Z,32.55
2023-03-26T13:02:29.210Z,32.63
2023-03-26T13:04:17.486Z,32.50
2023-03-26T13:06:01.750Z,32.49
2023-03-26T13:07:10.881Z,32.70
2023-03-26T13:08:21.781Z,32.74
2023-03-26T13:10:06.413Z,32.56
2023-03-26T13:11:27.732Z,32.63
2023-03-26T13:13:11.193Z,32.69
2023-03-26T13:14:35.926Z,32.80
2023-03-26T13:15:44.136Z,32.89
2023-03-26T13:17:05.026Z,32.71
2023-03-26T13:18:19.881Z,32.73
2023-03-26T13:19:51.597Z,32.73
2023-03-26T13:21:12.535Z,32.78
2023-03-26T13:22:39.609Z,32.85
2023-03-26T13:24:04.426Z,32.47
2023-03-26T13:25:41.183Z,32.61
2023-03-26T13:27:33.053Z,32.43
2023-03-26T13:28:34.741Z,32.67
2023-03-26T13:29:59.349Z,32.79
2023-03-26T13:31:36.614Z,32.62
2023-03-26T13:33:20.789Z,32.59
2023-03-26T13:35:13.890Z,32.53
2023-03-26T13:37:00.903Z,32.44
2023-03-26T13:38:32.821Z,32.66
2023-03-26T13:39:51.873Z,32.45
2023-03-26T13:41:38.626Z,32.72
2023-03-26T13:43:19.234Z,32.59
2023-03-26T13:45:04.626Z,32.59
2023-03-26T13:46:38.717Z,32.63
2023-03-26T13:47:50.686Z,32.69
2023-03-26T13:49:00.186Z,32.83
2023-03-26T13:50:14.831Z,32.78
2023-03-26T13:51:46.043Z,32.67
2023-03-26T13:53:02.050Z,32.93
2023-03-26T13:54:40.093Z,32.75
2023-03-26T13:55:54.658Z,32.82
2023-03-26T13:57:29.459Z,32.73
2023-03-26T13:58:47.394Z,32.86
2023-03-26T14:00:21.736Z,32.70
2023-03-26T14:01:35.221Z,32.93
2023-03-26T14:02:55.899Z,32.80
2023-03-26T14:04:38.800Z,32.72
2023-03-26T14:05:48.209Z,32.83
2023-03-26T14:06:57.595Z,32.79
2023-03-26T14:08:27.641Z,32.85
2023-03-26T14:10:10.116Z,32.73
2023-03-26T14:11:21.130Z,32.84
2023-03-26T14:12:49.035Z,32.70
2023-03-26T14:14:32.903Z,32.73
2023-03-26T14:15:55.795Z,32.90
2023-03-26T14:17:13.853Z,32.81
2023-03-26T14:18:51.380Z,32.82
2023-03-26T14:20:24.049Z,32.85
2023-03-26T14:22:27.257Z,32.62
2023-03-26T14:23:52.293Z,32.71
2023-03-26T14:25:08.541Z,32.77
2023-03-26T14:26:43.525Z,32.85
2023-03-26T14:27:58.539Z,32.81
2023-03-26T14:29:21.842Z,32.84
2023-03-26T14:31:28.963Z,32.72
2023-03-26T14:33:04.150Z,32.88
2023-03-26T14:34:30.209Z,32.78
2023-03-26T14:35:49.903Z,32.95
2023-03-26T14:37:28.178Z,32.74
2023-03-26T14:39:10.776Z,32.73
2023-03-26T14:41:07.233Z,32.80
2023-03-26T14:42:24.591Z,33.04
2023-03-26T14:43:43.648Z,32.86
2023-03-26T14:45:03.284Z,32.88
2023-03-26T14:46:21.529Z,32.88
2023-03-26T14:47:25.375Z,33.15
2023-03-26T14:48:36.533Z,33.05
2023-03-26T14:50:22.220Z,32.85
2023-03-26T14:51:55.749Z,32.99
2023-03-26T14:53:04.408Z,33.06
2023-03-26T14:54:13.312Z,32.94
2023-03-26T14:55:53.817Z,32.92
2023-03-26T14:57:07.539Z,33.03
2023-03-26T14:59:18.165Z,32.55
2023-03-26T15:01:03.963Z,32.74
2023-03-26T15:02:43.830Z,32.77
2023-03-26T15:04:12.896Z,32.71
2023-03-26T15:05:36.481Z,32.81
2023-03-26T15:07:20.668Z,32.73
2023-03-26T15:08:52.271Z,32.75
2023-03-26T15:10:45.281Z,32.78
2023-03-26T15:12:13.725Z,32.84
2023-03-26T15:14:03.851Z,32.70
2023-03-26T15:15:35.061Z,32.83
2023-03-26T15:17:22.918Z,32.72
2023-03-26T15:19:04.201Z,32.77
2023-03-26T15:21:08.565Z,32.89
2023-03-26T15:22:38.408Z,32.92
2023-03-26T15:24:32.241Z,32.72
2023-03-26T15:25:58.775Z,32.96
2023-03-26T15:27:24.705Z,32.91
2023-03-26T15:28:51.387Z,33.03
2023-03-26T15:30:49.417Z,32.92
2023-03-26T15:32:49.658Z,32.89
2023-03-26T15:34:19.870Z,32.89
2023-03-26T15:35:58.490Z,33.06
2023-03-26T15:37:28.771Z,32.89
2023-03-26T15:39:11.809Z,32.80
2023-03-26T15:40:38.125Z,32.85
2023-03-26T15:41:52.074Z,33.07
2023-03-26T15:43:10.942Z,33.02
2023-03-26T15:44:38.061Z,32.85
2023-03-26T15:45:53.991Z,33.13
2023-03-26T15:47:16.209Z,33.03
2023-03-26T15:48:46.438Z,32.86
2023-03-26T15:50:00.581Z,33.12
2023-03-26T15:51:28.529Z,32.82
2023-03-26T15:52:56.036Z,32.91
2023-03-26T15:54:23.006Z,33.01
2023-03-26T15:55:36.070Z,33.17
2023-03-26T15:57:27.557Z,32.90
2023-03-26T15:58:46.663Z,32.73
2023-03-26T16:00:29.104Z,32.93
2023-03-26T16:02:02.798Z,32.83
2023-03-26T16:03:34.317Z,32.96